createdAt,value
2022-12-22T00:02:37.598Z,28.37
2022-12-22T00:05:31.738Z,30.20
2022-12-22T00:08:17.087Z,29.50
2022-12-22T00:11:02.470Z,29.70
2022-12-22T00:13:47.833Z,31.83
2022-12-22T00:16:34.561Z,29.87
2022-12-22T00:19:19.891Z,30.70
2022-12-22T00:22:05.239Z,31.20
2022-12-22T00:24:50.553Z,30.63
2022-12-22T00:27:45.699Z,30.03
2022-12-22T00:30:32.160Z,31.67
2022-12-22T00:33:19.183Z,30.37
2022-12-22T00:36:04.445Z,32.17
2022-12-22T00:38:49.798Z,30.37
2022-12-22T00:41:35.140Z,31.27
2022-12-22T00:44:20.677Z,29.27
2022-12-22T00:47:05.891Z,30.90
2022-12-22T00:49:54.451Z,30.50
2022-12-22T00:52:40.922Z,29.57
2022-12-22T00:55:31.389Z,31.43
2022-12-22T00:58:16.677Z,29.33
2022-12-22T01:01:02.100Z,29.63
2022-12-22T01:03:47.446Z,29.63
2022-12-22T01:06:34.432Z,29.03
2022-12-22T01:09:19.820Z,30.17
2022-12-22T01:12:04.932Z,29.53
2022-12-22T01:14:50.261Z,28.57
2022-12-22T01:17:35.769Z,29.60
2022-12-22T01:20:21.113Z,29.10
2022-12-22T01:23:07.629Z,31.07
2022-12-22T01:25:52.809Z,29.63
2022-12-22T01:28:38.171Z,27.97
2022-12-22T01:31:34.879Z,30.97
2022-12-22T01:34:20.219Z,29.30
2022-12-22T01:37:05.560Z,28.57
2022-12-22T01:39:52.294Z,29.50
2022-12-22T01:42:37.769Z,28.60
2022-12-22T01:45:38.175Z,29.27
2022-12-22T01:48:23.890Z,29.80
2022-12-22T01:51:09.284Z,29.93
2022-12-22T01:53:54.710Z,28.33
2022-12-22T01:56:41.854Z,29.17
2022-12-22T01:59:27.240Z,29.77
2022-12-22T02:02:13.047Z,29.53
2022-12-22T02:05:00.698Z,29.27
2022-12-22T02:08:04.678Z,27.17
2022-12-22T02:11:02.559Z,28.60
2022-12-22T02:13:54.201Z,26.40
2022-12-22T02:16:46.330Z,25.53
2022-12-22T02:19:39.177Z,26.23
2022-12-22T02:22:28.563Z,24.97
2022-12-22T02:25:18.927Z,25.33
2022-12-22T02:28:06.015Z,23.60
2022-12-22T02:30:51.952Z,24.10
2022-12-22T02:33:39.038Z,24.10
2022-12-22T02:36:31.889Z,24.80
2022-12-22T02:39:24.158Z,23.30
2022-12-22T02:42:15.623Z,23.47
2022-12-22T02:45:08.167Z,25.73
2022-12-22T02:47:58.709Z,23.23
2022-12-22T02:50:47.489Z,23.23
2022-12-22T02:53:40.483Z,23.50
2022-12-22T02:56:27.195Z,25.07
2022-12-22T02:59:12.686Z,23.83
2022-12-22T03:02:03.380Z,23.03
2022-12-22T03:04:48.570Z,25.47
2022-12-22T03:07:33.895Z,23.27
2022-12-22T03:10:22.397Z,24.80
2022-12-22T03:13:07.705Z,22.80
2022-12-22T03:15:53.098Z,25.63
2022-12-22T03:18:39.718Z,24.43
2022-12-22T03:21:24.958Z,23.30
2022-12-22T03:24:10.261Z,24.87
2022-12-22T03:26:38.997Z,23.77
2022-12-22T03:29:06.750Z,25.10
2022-12-22T03:31:34.545Z,26.00
2022-12-22T03:34:03.779Z,26.10
2022-12-22T03:36:31.495Z,24.87
2022-12-22T03:38:59.259Z,25.27
2022-12-22T03:41:44.466Z,27.30
2022-12-22T03:44:29.832Z,24.73
2022-12-22T03:46:57.556Z,25.60
2022-12-22T03:49:26.652Z,25.00
2022-12-22T03:51:54.970Z,24.63
2022-12-22T03:54:24.397Z,25.97
2022-12-22T03:56:52.832Z,23.67
2022-12-22T03:59:20.896Z,24.50
2022-12-22T04:01:51.347Z,23.07
2022-12-22T04:04:21.217Z,23.37
2022-12-22T04:06:50.571Z,24.17
2022-12-22T04:09:18.622Z,25.03
2022-12-22T04:12:03.616Z,23.90
2022-12-22T04:14:34.356Z,22.07
2022-12-22T04:17:02.840Z,23.57
2022-12-22T04:19:30.635Z,21.50
2022-12-22T04:21:59.997Z,23.70
2022-12-22T04:24:27.736Z,21.87
2022-12-22T04:26:55.521Z,24.00
2022-12-22T04:29:23.223Z,23.60
2022-12-22T04:31:51.034Z,23.67
2022-12-22T04:34:18.853Z,24.90
2022-12-22T04:36:46.644Z,23.83
2022-12-22T04:39:15.756Z,24.53
2022-12-22T04:41:44.658Z,23.30
2022-12-22T04:44:12.425Z,23.00
2022-12-22T04:46:40.200Z,23.03
2022-12-22T04:49:08.248Z,21.70
2022-12-22T04:51:36.055Z,21.93
2022-12-22T04:54:03.837Z,20.80
2022-12-22T04:56:32.994Z,24.33
2022-12-22T04:59:00.764Z,22.60
2022-12-22T05:01:28.817Z,23.97
2022-12-22T05:03:56.622Z,24.20
2022-12-22T05:06:24.403Z,24.37
2022-12-22T05:08:52.155Z,25.00
2022-12-22T05:11:19.954Z,27.37
2022-12-22T05:13:49.052Z,26.03
2022-12-22T05:16:17.649Z,25.37
2022-12-22T05:18:46.652Z,26.53
2022-12-22T05:21:16.301Z,24.80
2022-12-22T05:23:44.446Z,25.07
2022-12-22T05:26:14.520Z,26.63
2022-12-22T05:28:42.811Z,25.67
2022-12-22T05:31:16.634Z,26.43
2022-12-22T05:33:44.469Z,26.73
2022-12-22T05:36:12.189Z,26.33
2022-12-22T05:38:40.141Z,24.33
2022-12-22T05:41:08.381Z,25.23
2022-12-22T05:43:36.439Z,24.93
2022-12-22T05:46:04.684Z,26.83
2022-12-22T05:48:38.585Z,26.67
2022-12-22T05:51:08.026Z,25.17
2022-12-22T05:53:35.818Z,25.83
2022-12-22T05:56:03.557Z,26.63
2022-12-22T05:58:31.306Z,27.10
2022-12-22T06:00:59.508Z,26.50
2022-12-22T06:03:28.337Z,25.73
2022-12-22T06:05:57.938Z,26.20
2022-12-22T06:08:26.380Z,25.30
2022-12-22T06:10:55.455Z,27.80
2022-12-22T06:13:23.408Z,29.50
2022-12-22T06:15:51.404Z,29.60
2022-12-22T06:18:19.175Z,29.70
2022-12-22T06:20:46.984Z,29.20
2022-12-22T06:23:16.076Z,28.17
2022-12-22T06:25:43.855Z,28.30
2022-12-22T06:28:11.587Z,27.77
2022-12-22T06:30:39.279Z,28.57
2022-12-22T06:33:07.022Z,27.43
2022-12-22T06:35:34.799Z,27.30
2022-12-22T06:38:02.577Z,26.30
2022-12-22T06:40:31.747Z,26.73
2022-12-22T06:43:10.887Z,25.63
2022-12-22T06:45:41.267Z,27.57
2022-12-22T06:48:10.744Z,26.33
2022-12-22T06:50:38.489Z,26.13
2022-12-22T06:53:06.865Z,26.17
2022-12-22T06:55:36.172Z,27.50
2022-12-22T06:58:04.441Z,26.87
2022-12-22T07:00:32.218Z,27.33
2022-12-22T07:03:00.292Z,28.07
2022-12-22T07:05:30.196Z,28.13
2022-12-22T07:08:02.700Z,28.93
2022-12-22T07:13:25.267Z,28.60
2022-12-22T07:15:59.898Z,28.50
2022-12-22T07:18:29.277Z,28.70
2022-12-22T07:20:57.247Z,27.33
2022-12-22T07:23:25.143Z,25.83
2022-12-22T07:25:53.020Z,27.57
2022-12-22T07:28:21.774Z,27.87
2022-12-22T07:30:51.350Z,27.20
2022-12-22T07:33:19.781Z,28.33
2022-12-22T07:35:47.729Z,28.20
2022-12-22T07:38:15.445Z,29.37
2022-12-22T07:40:45.738Z,30.90
2022-12-22T07:43:14.838Z,30.20
2022-12-22T07:45:42.616Z,27.73
2022-12-22T07:48:26.570Z,30.70
2022-12-22T07:51:05.106Z,32.27
2022-12-22T07:53:33.891Z,29.53
2022-12-22T07:56:04.501Z,30.67
2022-12-22T07:58:32.321Z,29.57
2022-12-22T08:01:00.692Z,26.87
2022-12-22T08:03:29.900Z,27.83
2022-12-22T08:05:57.675Z,29.37
2022-12-22T08:08:25.428Z,26.37
2022-12-22T08:13:27.863Z,27.10
2022-12-22T08:15:55.772Z,27.53
2022-12-22T08:18:23.522Z,26.57
2022-12-22T08:20:53.124Z,28.17
2022-12-22T08:23:20.838Z,28.00
2022-12-22T08:25:53.071Z,28.03
2022-12-22T08:28:20.810Z,27.27
2022-12-22T08:30:48.819Z,27.10
2022-12-22T08:33:16.719Z,28.27
2022-12-22T08:35:44.526Z,30.47
2022-12-22T08:38:14.222Z,30.00
2022-12-22T08:40:44.353Z,28.53
2022-12-22T08:43:12.551Z,28.93
2022-12-22T08:45:40.338Z,28.77
2022-12-22T08:48:08.023Z,29.03
2022-12-22T08:50:35.782Z,29.53
2022-12-22T08:53:04.487Z,27.37
2022-12-22T08:55:33.789Z,27.80
2022-12-22T08:58:01.529Z,27.90
2022-12-22T09:00:29.407Z,26.90
2022-12-22T09:02:57.285Z,28.53
2022-12-22T09:05:25.220Z,27.07
2022-12-22T09:07:52.936Z,28.40
2022-12-22T09:10:20.643Z,27.87
2022-12-22T09:12:51.339Z,27.40
2022-12-22T09:15:19.391Z,27.90
2022-12-22T09:17:48.255Z,29.83
2022-12-22T09:20:16.248Z,29.07
2022-12-22T09:22:43.978Z,27.73
2022-12-22T09:25:11.939Z,28.00
2022-12-22T09:27:39.735Z,27.23
2022-12-22T09:30:10.373Z,28.73
2022-12-22T09:32:38.163Z,28.13
2022-12-22T09:35:06.634Z,28.23
2022-12-22T09:37:34.397Z,29.07
2022-12-22T09:40:02.175Z,30.97
2022-12-22T09:42:32.046Z,30.53
2022-12-22T09:44:59.793Z,29.13
2022-12-22T09:47:33.308Z,31.33
2022-12-22T09:50:01.117Z,30.63
2022-12-22T09:52:42.328Z,28.60
2022-12-22T09:55:14.984Z,29.40
2022-12-22T09:57:42.765Z,26.87
2022-12-22T10:00:15.364Z,28.30
2022-12-22T10:02:54.859Z,29.60
2022-12-22T10:05:28.576Z,29.60
2022-12-22T10:08:00.579Z,28.63
2022-12-22T10:10:30.201Z,29.40
2022-12-22T10:13:00.422Z,28.00
2022-12-22T10:15:28.500Z,29.83
2022-12-22T10:18:11.027Z,30.57
2022-12-22T10:20:39.879Z,29.20
2022-12-22T10:23:17.195Z,30.10
2022-12-22T10:26:31.147Z,32.83
2022-12-22T10:28:49.499Z,29.07
2022-12-22T10:31:20.164Z,30.40
2022-12-22T10:33:50.874Z,30.47
2022-12-22T10:36:22.969Z,33.57
2022-12-22T10:38:57.646Z,34.60
2022-12-22T10:41:27.460Z,32.93
2022-12-22T10:43:57.364Z,34.80
2022-12-22T10:46:33.101Z,32.73
2022-12-22T10:49:14.611Z,33.10
2022-12-22T10:51:44.517Z,32.37
2022-12-22T10:54:25.258Z,32.57
2022-12-22T10:57:01.673Z,32.80
2022-12-22T10:59:29.439Z,32.93
2022-12-22T11:02:27.885Z,32.23
2022-12-22T11:05:03.225Z,31.80
2022-12-22T11:07:33.665Z,33.50
2022-12-22T11:10:01.524Z,31.30
2022-12-22T11:12:37.325Z,33.03
2022-12-22T11:15:11.932Z,32.27
2022-12-22T11:17:45.877Z,32.10
2022-12-22T11:20:32.293Z,32.80
2022-12-22T11:23:03.181Z,30.30
2022-12-22T11:25:38.299Z,30.43
2022-12-22T11:28:18.744Z,35.53
2022-12-22T11:30:55.003Z,36.93
2022-12-22T11:33:30.858Z,33.73
2022-12-22T11:36:04.833Z,38.60
2022-12-22T11:38:51.614Z,38.27
2022-12-22T11:41:36.005Z,40.50
2022-12-22T11:44:15.448Z,35.77
2022-12-22T11:46:49.008Z,37.80
2022-12-22T11:49:32.549Z,37.53
2022-12-22T11:52:12.409Z,35.33
2022-12-22T11:55:05.929Z,35.03
2022-12-22T11:57:37.844Z,41.43
2022-12-22T12:00:10.839Z,37.67
2022-12-22T12:03:12.581Z,38.80
2022-12-22T12:05:57.875Z,38.00
2022-12-22T12:08:34.006Z,37.07
2022-12-22T12:11:18.014Z,37.67
2022-12-22T12:13:53.413Z,36.33
2022-12-22T12:16:27.071Z,39.03
2022-12-22T12:19:28.534Z,35.77
2022-12-22T12:21:59.653Z,36.83
2022-12-22T12:24:41.585Z,39.20
2022-12-22T12:27:14.403Z,36.97
2022-12-22T12:29:48.685Z,38.97
2022-12-22T12:32:26.789Z,37.83
2022-12-22T12:35:01.348Z,42.93
2022-12-22T12:37:31.804Z,38.27
2022-12-22T12:40:10.211Z,38.10
2022-12-22T12:42:40.107Z,39.30
2022-12-22T12:45:35.721Z,40.90
2022-12-22T12:48:40.262Z,37.20
2022-12-22T12:51:45.488Z,35.87
2022-12-22T12:54:44.444Z,35.50
2022-12-22T12:57:28.243Z,38.30
2022-12-22T12:59:57.302Z,36.07
2022-12-22T13:02:36.400Z,38.03
2022-12-22T13:05:36.611Z,38.43
2022-12-22T13:08:19.321Z,40.27
2022-12-22T13:10:49.734Z,38.10
2022-12-22T13:13:56.374Z,40.20
2022-12-22T13:16:32.445Z,40.43
2022-12-22T13:19:03.052Z,39.07
2022-12-22T13:21:55.062Z,38.03
2022-12-22T13:24:27.822Z,38.73
2022-12-22T13:27:02.281Z,39.80
2022-12-22T13:29:42.806Z,40.73
2022-12-22T13:32:32.216Z,39.67
2022-12-22T13:37:54.985Z,41.10
2022-12-22T13:40:26.019Z,39.53
2022-12-22T13:42:55.503Z,40.03
2022-12-22T13:45:33.663Z,41.87
2022-12-22T13:48:03.147Z,37.33
2022-12-22T13:50:34.611Z,41.50
2022-12-22T13:53:03.666Z,39.30
2022-12-22T13:55:33.087Z,40.50
2022-12-22T13:58:06.660Z,40.97
2022-12-22T14:00:36.395Z,40.30
2022-12-22T14:03:09.231Z,38.73
2022-12-22T14:05:37.303Z,40.97
2022-12-22T14:08:06.489Z,39.77
2022-12-22T14:10:36.649Z,42.80
2022-12-22T14:13:08.067Z,40.70
2022-12-22T14:15:37.205Z,41.73
2022-12-22T14:18:07.051Z,41.47
2022-12-22T14:20:36.896Z,42.73
2022-12-22T14:23:07.322Z,41.83
2022-12-22T14:25:37.442Z,40.33
2022-12-22T14:28:06.611Z,40.67
2022-12-22T14:30:39.361Z,39.23
2022-12-22T14:33:19.606Z,42.83
2022-12-22T14:35:47.438Z,41.33
2022-12-22T14:38:25.531Z,45.87
2022-12-22T14:40:57.417Z,42.63
2022-12-22T14:43:28.897Z,41.30
2022-12-22T14:46:06.562Z,40.13
2022-12-22T14:48:36.528Z,45.03
2022-12-22T14:51:04.795Z,45.97
2022-12-22T14:53:39.149Z,42.23
2022-12-22T14:56:11.993Z,45.87
2022-12-22T14:58:41.634Z,45.17
2022-12-22T15:01:20.589Z,45.77
2022-12-22T15:04:00.219Z,43.40
2022-12-22T15:06:41.662Z,43.70
2022-12-22T15:10:12.700Z,43.20
2022-12-22T15:12:18.899Z,41.63
2022-12-22T15:14:48.875Z,40.73
2022-12-22T15:17:22.790Z,41.47
2022-12-22T15:19:52.591Z,46.50
2022-12-22T15:22:20.439Z,40.20
2022-12-22T15:24:48.240Z,43.10
2022-12-22T15:27:16.011Z,43.27
2022-12-22T15:29:43.823Z,45.40
2022-12-22T15:32:12.984Z,44.03
2022-12-22T15:34:42.110Z,43.33
2022-12-22T15:37:12.937Z,44.00
2022-12-22T15:39:40.790Z,45.03
2022-12-22T15:42:08.564Z,43.97
2022-12-22T15:44:39.000Z,43.93
2022-12-22T15:47:07.391Z,45.70
2022-12-22T15:49:35.130Z,43.80
2022-12-22T15:52:05.632Z,42.57
2022-12-22T15:54:33.860Z,43.17
2022-12-22T15:57:01.916Z,42.53
2022-12-22T15:59:31.018Z,46.20
2022-12-22T16:02:01.694Z,47.53
2022-12-22T16:04:30.265Z,48.53
2022-12-22T16:06:59.851Z,47.63
2022-12-22T16:09:32.521Z,48.20
2022-12-22T16:12:00.348Z,45.97
2022-12-22T16:14:31.198Z,46.27
2022-12-22T16:17:01.531Z,48.47
2022-12-22T16:19:30.423Z,47.17
2022-12-22T16:21:58.186Z,45.80
2022-12-22T16:24:30.157Z,49.30
2022-12-22T16:26:58.169Z,45.73
2022-12-22T16:29:26.121Z,47.47
2022-12-22T16:31:54.181Z,45.57
2022-12-22T16:34:21.936Z,43.80
2022-12-22T16:36:49.679Z,47.50
2022-12-22T16:39:17.409Z,45.60
2022-12-22T16:41:46.592Z,45.90
2022-12-22T16:44:27.975Z,46.57
2022-12-22T16:46:57.292Z,44.90
2022-12-22T16:49:27.092Z,45.43
2022-12-22T16:51:56.051Z,47.43
2022-12-22T16:54:23.796Z,45.10
2022-12-22T16:56:52.893Z,44.47
2022-12-22T16:59:20.728Z,44.37
2022-12-22T17:01:51.193Z,47.30
2022-12-22T17:04:21.531Z,46.47
2022-12-22T17:06:50.086Z,43.10
2022-12-22T17:09:20.545Z,44.97
2022-12-22T17:11:56.919Z,47.20
2022-12-22T17:14:29.360Z,49.33
2022-12-22T17:16:57.231Z,48.30
2022-12-22T17:19:25.293Z,49.80
2022-12-22T17:21:53.909Z,51.87
2022-12-22T17:24:27.762Z,51.17
2022-12-22T17:26:57.871Z,48.20
2022-12-22T17:29:25.773Z,50.27
2022-12-22T17:31:56.410Z,47.03
2022-12-22T17:34:24.947Z,48.03
2022-12-22T17:36:52.880Z,46.20
2022-12-22T17:39:22.137Z,49.50
2022-12-22T17:41:56.369Z,50.93
2022-12-22T17:44:27.692Z,50.57
2022-12-22T17:46:55.650Z,47.67
2022-12-22T17:49:23.464Z,49.10
2022-12-22T17:51:51.674Z,48.37
2022-12-22T17:54:23.813Z,50.73
2022-12-22T17:56:52.384Z,47.57
2022-12-22T17:59:20.139Z,46.10
2022-12-22T18:01:49.351Z,47.23
2022-12-22T18:04:17.230Z,49.97
2022-12-22T18:06:45.264Z,51.50
2022-12-22T18:09:20.062Z,53.63
2022-12-22T18:14:31.708Z,56.20
2022-12-22T18:17:00.860Z,55.43
2022-12-22T18:19:28.657Z,53.53
2022-12-22T18:21:56.428Z,52.73
2022-12-22T18:24:24.180Z,54.83
2022-12-22T18:26:51.878Z,55.80
2022-12-22T18:29:19.784Z,54.17
2022-12-22T18:31:47.696Z,54.57
2022-12-22T18:34:16.853Z,53.87
2022-12-22T18:36:45.692Z,55.73
2022-12-22T18:39:17.964Z,55.50
2022-12-22T18:41:46.024Z,59.53
2022-12-22T18:44:16.774Z,66.30
2022-12-22T18:46:45.088Z,66.13
2022-12-22T18:49:12.993Z,66.07
2022-12-22T18:51:43.259Z,65.87
2022-12-22T18:54:21.605Z,61.53
2022-12-22T18:56:49.890Z,61.77
2022-12-22T18:59:24.156Z,59.17
2022-12-22T19:01:52.576Z,57.00
2022-12-22T19:04:20.639Z,58.30
2022-12-22T19:06:49.768Z,58.03
2022-12-22T19:09:17.803Z,58.37
2022-12-22T19:11:48.792Z,56.03
2022-12-22T19:14:19.373Z,57.37
2022-12-22T19:16:47.542Z,55.40
2022-12-22T19:19:18.887Z,55.83
2022-12-22T19:21:46.873Z,56.67
2022-12-22T19:24:16.041Z,55.17
2022-12-22T19:26:43.841Z,57.47
2022-12-22T19:29:15.065Z,56.97
2022-12-22T19:31:44.278Z,55.53
2022-12-22T19:34:16.853Z,56.77
2022-12-22T19:36:44.593Z,58.40
2022-12-22T19:39:12.410Z,57.57
2022-12-22T19:41:44.886Z,55.93
2022-12-22T19:44:18.622Z,58.47
2022-12-22T19:46:46.423Z,55.87
2022-12-22T19:49:16.682Z,57.10
2022-12-22T19:51:44.497Z,56.67
2022-12-22T19:54:12.232Z,57.83
2022-12-22T19:56:42.373Z,60.37
2022-12-22T19:59:25.425Z,59.43
2022-12-22T20:01:55.062Z,58.23
2022-12-22T20:04:23.117Z,55.50
2022-12-22T20:06:51.136Z,56.33
2022-12-22T20:09:18.941Z,61.90
2022-12-22T20:14:37.531Z,61.77
2022-12-22T20:17:05.366Z,56.07
2022-12-22T20:19:33.181Z,56.83
2022-12-22T20:22:00.882Z,58.27
2022-12-22T20:24:31.295Z,52.20
2022-12-22T20:27:00.686Z,56.47
2022-12-22T20:29:28.494Z,58.13
2022-12-22T20:31:56.356Z,57.20
2022-12-22T20:34:25.560Z,55.57
2022-12-22T20:36:53.341Z,52.03
2022-12-22T20:39:22.177Z,50.70
2022-12-22T20:41:53.734Z,50.50
2022-12-22T20:44:23.524Z,52.53
2022-12-22T20:46:51.364Z,55.17
2022-12-22T20:49:19.146Z,52.27
2022-12-22T20:51:46.987Z,51.87
2022-12-22T20:54:15.148Z,54.73
2022-12-22T20:56:44.685Z,56.53
2022-12-22T20:59:15.229Z,53.97
2022-12-22T21:01:44.523Z,56.33
2022-12-22T21:04:14.133Z,59.67
2022-12-22T21:06:45.301Z,55.33
2022-12-22T21:09:13.662Z,56.17
2022-12-22T21:11:41.403Z,57.27
2022-12-22T21:14:10.645Z,55.83
2022-12-22T21:16:38.581Z,52.40
2022-12-22T21:19:07.841Z,53.47
2022-12-22T21:21:35.658Z,54.00
2022-12-22T21:24:03.385Z,53.63
2022-12-22T21:26:32.688Z,59.20
2022-12-22T21:29:00.906Z,56.43
2022-12-22T21:31:28.818Z,55.60
2022-12-22T21:33:56.745Z,57.33
2022-12-22T21:36:27.919Z,55.67
2022-12-22T21:38:57.999Z,56.17
2022-12-22T21:41:45.849Z,55.57
2022-12-22T21:44:13.980Z,56.27
2022-12-22T21:46:43.112Z,55.23
2022-12-22T21:49:16.591Z,56.67
2022-12-22T21:51:45.759Z,53.80
2022-12-22T21:54:13.497Z,57.33
2022-12-22T21:56:41.274Z,57.23
2022-12-22T21:59:09.052Z,55.87
2022-12-22T22:01:36.961Z,55.30
2022-12-22T22:04:05.005Z,50.83
2022-12-22T22:06:32.751Z,50.23
2022-12-22T22:09:04.117Z,51.50
2022-12-22T22:11:32.268Z,51.87
2022-12-22T22:14:00.259Z,52.17
2022-12-22T22:16:28.143Z,51.97
2022-12-22T22:18:55.901Z,53.07
2022-12-22T22:21:23.630Z,52.00
2022-12-22T22:23:51.378Z,52.03
2022-12-22T22:26:20.444Z,51.33
2022-12-22T22:28:48.277Z,51.43
2022-12-22T22:31:16.170Z,51.13
2022-12-22T22:33:44.147Z,51.73
2022-12-22T22:36:12.084Z,49.87
2022-12-22T22:38:39.812Z,51.30
2022-12-22T22:41:07.569Z,49.73
2022-12-22T22:43:36.689Z,47.43
2022-12-22T22:46:04.519Z,47.00
2022-12-22T22:48:32.266Z,49.90
2022-12-22T22:51:00.051Z,48.17
2022-12-22T22:53:27.890Z,48.33
2022-12-22T22:55:55.611Z,50.47
2022-12-22T22:58:23.404Z,47.43
2022-12-22T23:00:52.483Z,45.90
2022-12-22T23:03:20.374Z,47.27
2022-12-22T23:05:48.156Z,46.23
2022-12-22T23:08:15.897Z,46.47
2022-12-22T23:10:48.889Z,47.70
2022-12-22T23:13:16.642Z,48.67
2022-12-22T23:15:53.342Z,45.27
2022-12-22T23:18:22.567Z,46.93
2022-12-22T23:20:50.341Z,47.27
2022-12-22T23:23:18.742Z,47.60
2022-12-22T23:25:48.161Z,50.53
2022-12-22T23:28:16.109Z,50.47
2022-12-22T23:30:45.279Z,47.93
2022-12-22T23:33:13.126Z,47.70
2022-12-22T23:35:43.184Z,46.30
2022-12-22T23:38:11.402Z,44.17
2022-12-22T23:40:55.417Z,45.77
2022-12-22T23:43:23.400Z,50.43
2022-12-22T23:45:51.090Z,49.07
2022-12-22T23:48:18.807Z,49.83
2022-12-22T23:50:48.562Z,47.67
2022-12-22T23:53:16.806Z,49.33
2022-12-22T23:55:44.595Z,49.17
2022-12-22T23:58:12.418Z,49.83
